sensor_id;sensor_type;location;lat;lon;timestamp;P1;durP1;ratioP1;P2;durP2;ratioP2
30062;SDS011;16889;67.864;24.990;2023-12-22T00:03:25;2.72;;;0.90;;
30062;SDS011;16889;67.864;24.990;2023-12-22T00:08:11;0.77;;;0.65;;
30062;SDS011;16889;67.864;24.990;2023-12-22T00:12:57;1.07;;;0.80;;
30062;SDS011;16889;67.864;24.990;2023-12-22T00:17:43;2.23;;;0.67;;
30062;SDS011;16889;67.864;24.990;2023-12-22T00:22:29;1.10;;;0.70;;
30062;SDS011;16889;67.864;24.990;2023-12-22T00:27:15;2.38;;;0.80;;
30062;SDS011;16889;67.864;24.990;2023-12-22T00:32:01;2.53;;;0.93;;
30062;SDS011;16889;67.864;24.990;2023-12-22T00:36:47;3.55;;;0.80;;
30062;SDS011;16889;67.864;24.990;2023-12-22T00:41:33;2.67;;;1.17;;
30062;SDS011;16889;67.864;24.990;2023-12-22T00:46:19;1.10;;;0.80;;
30062;SDS011;16889;67.864;24.990;2023-12-22T00:51:06;2.13;;;1.13;;
30062;SDS011;16889;67.864;24.990;2023-12-22T00:55:55;2.13;;;0.95;;
30062;SDS011;16889;67.864;24.990;2023-12-22T01:00:41;4.80;;;1.10;;
30062;SDS011;16889;67.864;24.990;2023-12-22T01:05:27;2.58;;;1.10;;
30062;SDS011;16889;67.864;24.990;2023-12-22T01:10:13;2.30;;;0.90;;
30062;SDS011;16889;67.864;24.990;2023-12-22T01:14:58;3.17;;;0.97;;
30062;SDS011;16889;67.864;24.990;2023-12-22T01:19:44;3.97;;;0.80;;
30062;SDS011;16889;67.864;24.990;2023-12-22T01:24:31;2.88;;;1.00;;
30062;SDS011;16889;67.864;24.990;2023-12-22T01:29:17;6.43;;;1.03;;
30062;SDS011;16889;67.864;24.990;2023-12-22T01:34:03;4.85;;;1.10;;
30062;SDS011;16889;67.864;24.990;2023-12-22T01:38:49;1.13;;;0.70;;
30062;SDS011;16889;67.864;24.990;2023-12-22T01:43:35;4.33;;;1.10;;
30062;SDS011;16889;67.864;24.990;2023-12-22T01:48:21;1.23;;;0.80;;
30062;SDS011;16889;67.864;24.990;2023-12-22T01:53:09;4.07;;;1.00;;
30062;SDS011;16889;67.864;24.990;2023-12-22T01:57:56;11.15;;;1.52;;
30062;SDS011;16889;67.864;24.990;2023-12-22T02:02:42;2.33;;;1.20;;
30062;SDS011;16889;67.864;24.990;2023-12-22T02:07:28;6.75;;;1.13;;
30062;SDS011;16889;67.864;24.990;2023-12-22T02:12:14;2.57;;;1.10;;
30062;SDS011;16889;67.864;24.990;2023-12-22T02:17:11;3.10;;;1.30;;
30062;SDS011;16889;67.864;24.990;2023-12-22T02:22:07;9.65;;;1.40;;
30062;SDS011;16889;67.864;24.990;2023-12-22T02:26:54;6.85;;;1.35;;
30062;SDS011;16889;67.864;24.990;2023-12-22T02:31:45;3.35;;;1.38;;
30062;SDS011;16889;67.864;24.990;2023-12-22T02:36:37;7.50;;;1.30;;
30062;SDS011;16889;67.864;24.990;2023-12-22T02:41:25;6.95;;;1.52;;
30062;SDS011;16889;67.864;24.990;2023-12-22T02:46:14;3.22;;;1.10;;
30062;SDS011;16889;67.864;24.990;2023-12-22T02:51:01;6.28;;;1.50;;
30062;SDS011;16889;67.864;24.990;2023-12-22T02:55:47;5.55;;;1.30;;
30062;SDS011;16889;67.864;24.990;2023-12-22T03:00:33;5.53;;;1.70;;
30062;SDS011;16889;67.864;24.990;2023-12-22T03:05:19;5.00;;;1.80;;
30062;SDS011;16889;67.864;24.990;2023-12-22T03:10:05;5.18;;;1.45;;
30062;SDS011;16889;67.864;24.990;2023-12-22T03:14:51;3.38;;;1.40;;
30062;SDS011;16889;67.864;24.990;2023-12-22T03:19:37;6.27;;;1.40;;
30062;SDS011;16889;67.864;24.990;2023-12-22T03:24:25;7.05;;;1.88;;
30062;SDS011;16889;67.864;24.990;2023-12-22T03:29:11;10.07;;;2.30;;
30062;SDS011;16889;67.864;24.990;2023-12-22T03:33:57;4.13;;;1.47;;
30062;SDS011;16889;67.864;24.990;2023-12-22T03:38:44;2.88;;;1.33;;
30062;SDS011;16889;67.864;24.990;2023-12-22T03:43:30;4.13;;;1.47;;
30062;SDS011;16889;67.864;24.990;2023-12-22T03:48:16;3.20;;;1.35;;
30062;SDS011;16889;67.864;24.990;2023-12-22T03:53:02;6.40;;;1.60;;
30062;SDS011;16889;67.864;24.990;2023-12-22T03:57:48;3.78;;;1.90;;
30062;SDS011;16889;67.864;24.990;2023-12-22T04:02:34;9.63;;;1.50;;
30062;SDS011;16889;67.864;24.990;2023-12-22T04:07:20;6.23;;;1.67;;
30062;SDS011;16889;67.864;24.990;2023-12-22T04:12:06;5.00;;;1.23;;
30062;SDS011;16889;67.864;24.990;2023-12-22T04:16:52;5.00;;;1.40;;
30062;SDS011;16889;67.864;24.990;2023-12-22T04:21:38;7.00;;;1.20;;
30062;SDS011;16889;67.864;24.990;2023-12-22T04:26:24;3.83;;;1.08;;
30062;SDS011;16889;67.864;24.990;2023-12-22T04:31:10;3.17;;;1.00;;
30062;SDS011;16889;67.864;24.990;2023-12-22T04:35:56;4.87;;;1.07;;
30062;SDS011;16889;67.864;24.990;2023-12-22T04:40:42;4.03;;;1.47;;
30062;SDS011;16889;67.864;24.990;2023-12-22T04:45:28;3.78;;;1.65;;
30062;SDS011;16889;67.864;24.990;2023-12-22T04:50:14;4.20;;;1.27;;
30062;SDS011;16889;67.864;24.990;2023-12-22T04:55:00;4.07;;;1.40;;
30062;SDS011;16889;67.864;24.990;2023-12-22T04:59:46;2.40;;;1.20;;
30062;SDS011;16889;67.864;24.990;2023-12-22T05:04:32;2.57;;;1.30;;
30062;SDS011;16889;67.864;24.990;2023-12-22T05:09:18;5.32;;;1.38;;
30062;SDS011;16889;67.864;24.990;2023-12-22T05:14:05;4.85;;;1.20;;
30062;SDS011;16889;67.864;24.990;2023-12-22T05:18:51;3.80;;;1.50;;
30062;SDS011;16889;67.864;24.990;2023-12-22T05:23:37;2.10;;;1.20;;
30062;SDS011;16889;67.864;24.990;2023-12-22T05:28:22;5.07;;;1.30;;
30062;SDS011;16889;67.864;24.990;2023-12-22T05:33:08;2.23;;;1.03;;
30062;SDS011;16889;67.864;24.990;2023-12-22T05:37:54;3.60;;;1.03;;
30062;SDS011;16889;67.864;24.990;2023-12-22T05:42:40;4.78;;;1.00;;
30062;SDS011;16889;67.864;24.990;2023-12-22T05:47:26;1.83;;;0.87;;
30062;SDS011;16889;67.864;24.990;2023-12-22T05:52:12;2.57;;;0.90;;
30062;SDS011;16889;67.864;24.990;2023-12-22T05:56:58;1.53;;;0.70;;
30062;SDS011;16889;67.864;24.990;2023-12-22T06:01:44;1.77;;;0.80;;
30062;SDS011;16889;67.864;24.990;2023-12-22T06:06:30;1.10;;;0.80;;
30062;SDS011;16889;67.864;24.990;2023-12-22T06:11:16;1.40;;;0.80;;
30062;SDS011;16889;67.864;24.990;2023-12-22T06:16:02;1.50;;;0.90;;
30062;SDS011;16889;67.864;24.990;2023-12-22T06:20:48;1.10;;;0.88;;
30062;SDS011;16889;67.864;24.990;2023-12-22T06:25:35;1.80;;;0.88;;
30062;SDS011;16889;67.864;24.990;2023-12-22T06:30:20;3.03;;;1.00;;
30062;SDS011;16889;67.864;24.990;2023-12-22T06:35:07;1.33;;;0.97;;
30062;SDS011;16889;67.864;24.990;2023-12-22T06:39:55;2.00;;;0.90;;
30062;SDS011;16889;67.864;24.990;2023-12-22T06:44:41;1.33;;;0.90;;
30062;SDS011;16889;67.864;24.990;2023-12-22T06:49:29;1.92;;;0.77;;
30062;SDS011;16889;67.864;24.990;2023-12-22T06:54:15;1.50;;;1.00;;
30062;SDS011;16889;67.864;24.990;2023-12-22T06:59:01;1.70;;;1.03;;
30062;SDS011;16889;67.864;24.990;2023-12-22T07:03:48;2.22;;;1.08;;
30062;SDS011;16889;67.864;24.990;2023-12-22T07:08:34;6.13;;;0.98;;
30062;SDS011;16889;67.864;24.990;2023-12-22T07:13:20;0.80;;;0.70;;
30062;SDS011;16889;67.864;24.990;2023-12-22T07:18:06;1.00;;;0.77;;
30062;SDS011;16889;67.864;24.990;2023-12-22T07:22:52;0.80;;;0.70;;
30062;SDS011;16889;67.864;24.990;2023-12-22T07:27:39;1.50;;;0.80;;
30062;SDS011;16889;67.864;24.990;2023-12-22T07:32:25;1.37;;;0.80;;
30062;SDS011;16889;67.864;24.990;2023-12-22T07:37:11;0.83;;;0.70;;
30062;SDS011;16889;67.864;24.990;2023-12-22T07:41:57;0.80;;;0.70;;
30062;SDS011;16889;67.864;24.990;2023-12-22T07:46:43;1.90;;;0.80;;
30062;SDS011;16889;67.864;24.990;2023-12-22T07:51:28;2.60;;;0.70;;
30062;SDS011;16889;67.864;24.990;2023-12-22T07:56:15;0.93;;;0.70;;
30062;SDS011;16889;67.864;24.990;2023-12-22T08:01:01;1.60;;;0.90;;
30062;SDS011;16889;67.864;24.990;2023-12-22T08:05:48;1.42;;;0.85;;
30062;SDS011;16889;67.864;24.990;2023-12-22T08:10:34;2.37;;;0.70;;
30062;SDS011;16889;67.864;24.990;2023-12-22T08:15:20;1.20;;;0.80;;
30062;SDS011;16889;67.864;24.990;2023-12-22T08:20:06;1.03;;;0.53;;
30062;SDS011;16889;67.864;24.990;2023-12-22T08:24:53;3.22;;;0.88;;
30062;SDS011;16889;67.864;24.990;2023-12-22T08:29:39;1.97;;;0.80;;
30062;SDS011;16889;67.864;24.990;2023-12-22T08:34:25;1.60;;;1.00;;
30062;SDS011;16889;67.864;24.990;2023-12-22T08:39:11;1.08;;;0.70;;
30062;SDS011;16889;67.864;24.990;2023-12-22T08:43:57;1.20;;;0.60;;
30062;SDS011;16889;67.864;24.990;2023-12-22T08:48:43;0.63;;;0.50;;
30062;SDS011;16889;67.864;24.990;2023-12-22T08:53:29;2.50;;;0.60;;
30062;SDS011;16889;67.864;24.990;2023-12-22T08:58:18;1.08;;;0.60;;
30062;SDS011;16889;67.864;24.990;2023-12-22T09:03:04;1.63;;;0.70;;
30062;SDS011;16889;67.864;24.990;2023-12-22T09:07:50;0.40;;;0.40;;
30062;SDS011;16889;67.864;24.990;2023-12-22T09:12:36;0.70;;;0.60;;
30062;SDS011;16889;67.864;24.990;2023-12-22T09:17:22;1.50;;;0.57;;
30062;SDS011;16889;67.864;24.990;2023-12-22T09:22:08;0.70;;;0.40;;
30062;SDS011;16889;67.864;24.990;2023-12-22T09:26:54;0.60;;;0.47;;
30062;SDS011;16889;67.864;24.990;2023-12-22T09:31:48;0.52;;;0.47;;
30062;SDS011;16889;67.864;24.990;2023-12-22T09:36:34;0.40;;;0.40;;
30062;SDS011;16889;67.864;24.990;2023-12-22T09:41:20;2.43;;;0.60;;
30062;SDS011;16889;67.864;24.990;2023-12-22T09:46:09;0.75;;;0.40;;
30062;SDS011;16889;67.864;24.990;2023-12-22T09:50:57;0.63;;;0.40;;
30062;SDS011;16889;67.864;24.990;2023-12-22T09:55:48;0.40;;;0.35;;
30062;SDS011;16889;67.864;24.990;2023-12-22T10:00:36;0.45;;;0.30;;
30062;SDS011;16889;67.864;24.990;2023-12-22T10:05:23;0.57;;;0.45;;
30062;SDS011;16889;67.864;24.990;2023-12-22T10:10:09;0.30;;;0.30;;
30062;SDS011;16889;67.864;24.990;2023-12-22T10:14:56;0.60;;;0.50;;
30062;SDS011;16889;67.864;24.990;2023-12-22T10:19:44;0.40;;;0.40;;
30062;SDS011;16889;67.864;24.990;2023-12-22T10:24:36;0.80;;;0.50;;
30062;SDS011;16889;67.864;24.990;2023-12-22T10:29:32;1.42;;;0.52;;
30062;SDS011;16889;67.864;24.990;2023-12-22T10:34:18;2.33;;;0.60;;
30062;SDS011;16889;67.864;24.990;2023-12-22T10:39:04;3.23;;;0.70;;
30062;SDS011;16889;67.864;24.990;2023-12-22T10:43:50;0.73;;;0.50;;
30062;SDS011;16889;67.864;24.990;2023-12-22T10:48:36;0.55;;;0.52;;
30062;SDS011;16889;67.864;24.990;2023-12-22T10:53:22;0.50;;;0.50;;
30062;SDS011;16889;67.864;24.990;2023-12-22T11:02:58;0.57;;;0.50;;
30062;SDS011;16889;67.864;24.990;2023-12-22T11:07:51;0.50;;;0.50;;
30062;SDS011;16889;67.864;24.990;2023-12-22T11:12:40;0.75;;;0.43;;
30062;SDS011;16889;67.864;24.990;2023-12-22T11:17:30;1.15;;;0.57;;
30062;SDS011;16889;67.864;24.990;2023-12-22T11:22:17;0.80;;;0.40;;
30062;SDS011;16889;67.864;24.990;2023-12-22T11:31:51;1.13;;;0.60;;
30062;SDS011;16889;67.864;24.990;2023-12-22T11:36:43;0.63;;;0.52;;
30062;SDS011;16889;67.864;24.990;2023-12-22T11:41:33;0.90;;;0.70;;
30062;SDS011;16889;67.864;24.990;2023-12-22T11:46:22;1.63;;;0.70;;
30062;SDS011;16889;67.864;24.990;2023-12-22T11:51:14;1.05;;;0.60;;
30062;SDS011;16889;67.864;24.990;2023-12-22T11:56:02;0.65;;;0.50;;
30062;SDS011;16889;67.864;24.990;2023-12-22T12:00:52;0.93;;;0.60;;
30062;SDS011;16889;67.864;24.990;2023-12-22T12:05:39;1.40;;;0.73;;
30062;SDS011;16889;67.864;24.990;2023-12-22T12:15:20;1.83;;;1.20;;
30062;SDS011;16889;67.864;24.990;2023-12-22T12:20:10;1.35;;;0.70;;
30062;SDS011;16889;67.864;24.990;2023-12-22T12:24:57;2.33;;;0.90;;
30062;SDS011;16889;67.864;24.990;2023-12-22T12:29:43;2.78;;;1.10;;
30062;SDS011;16889;67.864;24.990;2023-12-22T12:34:30;1.23;;;0.70;;
30062;SDS011;16889;67.864;24.990;2023-12-22T12:44:04;0.85;;;0.60;;
30062;SDS011;16889;67.864;24.990;2023-12-22T12:53:49;1.83;;;0.90;;
30062;SDS011;16889;67.864;24.990;2023-12-22T12:58:34;1.67;;;0.70;;
30062;SDS011;16889;67.864;24.990;2023-12-22T13:03:20;1.73;;;0.90;;
30062;SDS011;16889;67.864;24.990;2023-12-22T13:08:08;1.73;;;0.80;;
30062;SDS011;16889;67.864;24.990;2023-12-22T13:12:57;2.05;;;0.90;;
30062;SDS011;16889;67.864;24.990;2023-12-22T13:17:44;2.13;;;0.85;;
30062;SDS011;16889;67.864;24.990;2023-12-22T13:22:31;0.98;;;0.57;;
30062;SDS011;16889;67.864;24.990;2023-12-22T13:27:17;1.40;;;0.75;;
30062;SDS011;16889;67.864;24.990;2023-12-22T13:32:03;1.20;;;0.70;;
30062;SDS011;16889;67.864;24.990;2023-12-22T13:36:49;1.45;;;0.70;;
30062;SDS011;16889;67.864;24.990;2023-12-22T13:41:38;0.82;;;0.52;;
30062;SDS011;16889;67.864;24.990;2023-12-22T13:46:27;0.88;;;0.60;;
30062;SDS011;16889;67.864;24.990;2023-12-22T13:51:13;1.75;;;0.70;;
30062;SDS011;16889;67.864;24.990;2023-12-22T13:55:59;2.13;;;0.63;;
30062;SDS011;16889;67.864;24.990;2023-12-22T14:00:45;2.22;;;0.85;;
30062;SDS011;16889;67.864;24.990;2023-12-22T14:05:32;1.30;;;0.80;;
30062;SDS011;16889;67.864;24.990;2023-12-22T14:10:19;3.25;;;1.20;;
30062;SDS011;16889;67.864;24.990;2023-12-22T14:15:06;6.33;;;1.30;;
30062;SDS011;16889;67.864;24.990;2023-12-22T14:19:56;3.88;;;1.48;;
30062;SDS011;16889;67.864;24.990;2023-12-22T14:24:41;4.90;;;1.60;;
30062;SDS011;16889;67.864;24.990;2023-12-22T14:29:28;6.97;;;2.05;;
30062;SDS011;16889;67.864;24.990;2023-12-22T14:34:14;5.25;;;1.85;;
30062;SDS011;16889;67.864;24.990;2023-12-22T14:39:00;5.55;;;1.95;;
30062;SDS011;16889;67.864;24.990;2023-12-22T14:43:46;7.63;;;2.40;;
30062;SDS011;16889;67.864;24.990;2023-12-22T14:48:32;5.40;;;2.17;;
30062;SDS011;16889;67.864;24.990;2023-12-22T14:53:18;7.68;;;2.35;;
30062;SDS011;16889;67.864;24.990;2023-12-22T14:58:04;7.00;;;2.03;;
30062;SDS011;16889;67.864;24.990;2023-12-22T15:02:52;7.07;;;2.33;;
30062;SDS011;16889;67.864;24.990;2023-12-22T15:07:38;5.67;;;2.20;;
30062;SDS011;16889;67.864;24.990;2023-12-22T15:12:24;6.27;;;2.03;;
30062;SDS011;16889;67.864;24.990;2023-12-22T15:17:11;5.83;;;1.80;;
30062;SDS011;16889;67.864;24.990;2023-12-22T15:21:57;7.32;;;1.75;;
30062;SDS011;16889;67.864;24.990;2023-12-22T15:26:43;8.60;;;2.60;;
30062;SDS011;16889;67.864;24.990;2023-12-22T15:31:29;10.02;;;2.08;;
30062;SDS011;16889;67.864;24.990;2023-12-22T15:36:18;13.77;;;3.05;;
30062;SDS011;16889;67.864;24.990;2023-12-22T15:41:04;9.82;;;2.85;;
30062;SDS011;16889;67.864;24.990;2023-12-22T15:45:50;9.03;;;2.70;;
30062;SDS011;16889;67.864;24.990;2023-12-22T15:50:36;11.03;;;3.43;;
30062;SDS011;16889;67.864;24.990;2023-12-22T15:55:22;9.33;;;2.20;;
30062;SDS011;16889;67.864;24.990;2023-12-22T16:00:09;9.30;;;2.55;;
30062;SDS011;16889;67.864;24.990;2023-12-22T16:04:55;11.18;;;2.50;;
30062;SDS011;16889;67.864;24.990;2023-12-22T16:09:41;10.25;;;2.83;;
30062;SDS011;16889;67.864;24.990;2023-12-22T16:14:28;10.57;;;2.63;;
30062;SDS011;16889;67.864;24.990;2023-12-22T16:19:14;15.88;;;3.72;;
30062;SDS011;16889;67.864;24.990;2023-12-22T16:24:00;14.50;;;3.37;;
30062;SDS011;16889;67.864;24.990;2023-12-22T16:28:46;12.50;;;2.83;;
30062;SDS011;16889;67.864;24.990;2023-12-22T16:33:32;12.57;;;3.28;;
30062;SDS011;16889;67.864;24.990;2023-12-22T16:38:18;16.97;;;3.67;;
30062;SDS011;16889;67.864;24.990;2023-12-22T16:43:04;12.07;;;3.38;;
30062;SDS011;16889;67.864;24.990;2023-12-22T16:47:52;20.25;;;4.43;;
30062;SDS011;16889;67.864;24.990;2023-12-22T16:52:38;15.13;;;4.13;;
30062;SDS011;16889;67.864;24.990;2023-12-22T16:57:24;16.75;;;3.80;;
30062;SDS011;16889;67.864;24.990;2023-12-22T17:02:10;11.47;;;3.43;;
30062;SDS011;16889;67.864;24.990;2023-12-22T17:06:56;19.33;;;4.73;;
30062;SDS011;16889;67.864;24.990;2023-12-22T17:11:42;15.55;;;4.05;;
30062;SDS011;16889;67.864;24.990;2023-12-22T17:16:28;14.87;;;3.83;;
30062;SDS011;16889;67.864;24.990;2023-12-22T17:21:14;12.37;;;3.53;;
30062;SDS011;16889;67.864;24.990;2023-12-22T17:26:00;22.25;;;5.35;;
30062;SDS011;16889;67.864;24.990;2023-12-22T17:30:46;16.97;;;4.27;;
30062;SDS011;16889;67.864;24.990;2023-12-22T17:35:32;15.67;;;4.73;;
30062;SDS011;16889;67.864;24.990;2023-12-22T17:40:18;13.75;;;4.15;;
30062;SDS011;16889;67.864;24.990;2023-12-22T17:45:04;21.23;;;4.90;;
30062;SDS011;16889;67.864;24.990;2023-12-22T17:49:51;15.65;;;4.57;;
30062;SDS011;16889;67.864;24.990;2023-12-22T17:54:37;22.83;;;5.70;;
30062;SDS011;16889;67.864;24.990;2023-12-22T17:59:23;18.37;;;5.30;;
30062;SDS011;16889;67.864;24.990;2023-12-22T18:04:09;18.00;;;5.47;;
30062;SDS011;16889;67.864;24.990;2023-12-22T18:08:56;17.00;;;5.75;;
30062;SDS011;16889;67.864;24.990;2023-12-22T18:13:42;15.87;;;5.73;;
30062;SDS011;16889;67.864;24.990;2023-12-22T18:18:28;18.92;;;6.38;;
30062;SDS011;16889;67.864;24.990;2023-12-22T18:28:00;17.10;;;5.60;;
30062;SDS011;16889;67.864;24.990;2023-12-22T18:32:46;17.83;;;6.37;;
30062;SDS011;16889;67.864;24.990;2023-12-22T18:37:32;21.93;;;6.27;;
30062;SDS011;16889;67.864;24.990;2023-12-22T18:42:18;16.40;;;6.07;;
30062;SDS011;16889;67.864;24.990;2023-12-22T18:47:04;19.27;;;6.40;;
30062;SDS011;16889;67.864;24.990;2023-12-22T18:51:50;20.80;;;6.90;;
30062;SDS011;16889;67.864;24.990;2023-12-22T18:56:36;21.97;;;7.33;;
30062;SDS011;16889;67.864;24.990;2023-12-22T19:01:22;18.97;;;6.60;;
30062;SDS011;16889;67.864;24.990;2023-12-22T19:06:08;18.53;;;6.10;;
30062;SDS011;16889;67.864;24.990;2023-12-22T19:15:40;19.48;;;6.43;;
30062;SDS011;16889;67.864;24.990;2023-12-22T19:20:26;23.27;;;6.90;;
30062;SDS011;16889;67.864;24.990;2023-12-22T19:25:12;22.30;;;6.77;;
30062;SDS011;16889;67.864;24.990;2023-12-22T19:29:58;17.33;;;5.80;;
30062;SDS011;16889;67.864;24.990;2023-12-22T19:34:44;20.70;;;5.97;;
30062;SDS011;16889;67.864;24.990;2023-12-22T19:39:30;17.73;;;5.90;;
30062;SDS011;16889;67.864;24.990;2023-12-22T19:44:16;25.67;;;6.60;;
30062;SDS011;16889;67.864;24.990;2023-12-22T19:49:02;19.60;;;6.37;;
30062;SDS011;16889;67.864;24.990;2023-12-22T19:53:48;17.70;;;6.13;;
30062;SDS011;16889;67.864;24.990;2023-12-22T19:58:34;18.37;;;6.47;;
30062;SDS011;16889;67.864;24.990;2023-12-22T20:03:20;16.17;;;5.10;;
30062;SDS011;16889;67.864;24.990;2023-12-22T20:12:53;17.33;;;5.30;;
30062;SDS011;16889;67.864;24.990;2023-12-22T20:17:39;17.37;;;5.17;;
30062;SDS011;16889;67.864;24.990;2023-12-22T20:22:26;15.68;;;5.38;;
30062;SDS011;16889;67.864;24.990;2023-12-22T20:27:11;15.60;;;5.30;;
30062;SDS011;16889;67.864;24.990;2023-12-22T20:31:57;10.97;;;3.80;;
30062;SDS011;16889;67.864;24.990;2023-12-22T20:36:43;13.23;;;4.17;;
30062;SDS011;16889;67.864;24.990;2023-12-22T20:41:31;16.92;;;4.68;;
30062;SDS011;16889;67.864;24.990;2023-12-22T20:46:17;14.10;;;4.20;;
30062;SDS011;16889;67.864;24.990;2023-12-22T20:51:03;18.93;;;4.47;;
30062;SDS011;16889;67.864;24.990;2023-12-22T20:55:49;11.02;;;3.90;;
30062;SDS011;16889;67.864;24.990;2023-12-22T21:00:35;14.23;;;3.30;;
30062;SDS011;16889;67.864;24.990;2023-12-22T21:05:21;18.87;;;3.67;;
30062;SDS011;16889;67.864;24.990;2023-12-22T21:10:10;17.07;;;3.70;;
30062;SDS011;16889;67.864;24.990;2023-12-22T21:14:57;18.17;;;4.25;;
30062;SDS011;16889;67.864;24.990;2023-12-22T21:19:43;10.27;;;3.63;;
30062;SDS011;16889;67.864;24.990;2023-12-22T21:24:29;12.13;;;3.33;;
30062;SDS011;16889;67.864;24.990;2023-12-22T21:29:18;10.30;;;2.80;;
30062;SDS011;16889;67.864;24.990;2023-12-22T21:34:04;14.53;;;3.43;;
30062;SDS011;16889;67.864;24.990;2023-12-22T21:38:53;9.53;;;2.83;;
30062;SDS011;16889;67.864;24.990;2023-12-22T21:43:39;12.23;;;2.97;;
30062;SDS011;16889;67.864;24.990;2023-12-22T21:48:26;10.10;;;2.85;;
30062;SDS011;16889;67.864;24.990;2023-12-22T21:53:11;6.97;;;2.30;;
30062;SDS011;16889;67.864;24.990;2023-12-22T21:57:59;10.38;;;2.38;;
30062;SDS011;16889;67.864;24.990;2023-12-22T22:02:44;5.07;;;2.25;;
30062;SDS011;16889;67.864;24.990;2023-12-22T22:07:30;7.10;;;2.20;;
30062;SDS011;16889;67.864;24.990;2023-12-22T22:12:16;5.47;;;1.80;;
30062;SDS011;16889;67.864;24.990;2023-12-22T22:17:02;8.55;;;2.97;;
30062;SDS011;16889;67.864;24.990;2023-12-22T22:21:49;3.80;;;1.70;;
30062;SDS011;16889;67.864;24.990;2023-12-22T22:26:38;6.55;;;2.47;;
30062;SDS011;16889;67.864;24.990;2023-12-22T22:31:24;4.78;;;1.67;;
30062;SDS011;16889;67.864;24.990;2023-12-22T22:36:10;4.87;;;1.90;;
30062;SDS011;16889;67.864;24.990;2023-12-22T22:40:57;6.32;;;1.67;;
30062;SDS011;16889;67.864;24.990;2023-12-22T22:45:43;6.63;;;1.50;;
30062;SDS011;16889;67.864;24.990;2023-12-22T22:50:30;4.22;;;1.30;;
30062;SDS011;16889;67.864;24.990;2023-12-22T22:55:16;3.47;;;1.52;;
30062;SDS011;16889;67.864;24.990;2023-12-22T23:00:02;3.78;;;1.27;;
30062;SDS011;16889;67.864;24.990;2023-12-22T23:04:56;2.83;;;1.40;;
30062;SDS011;16889;67.864;24.990;2023-12-22T23:09:42;2.30;;;1.25;;
30062;SDS011;16889;67.864;24.990;2023-12-22T23:14:28;3.67;;;1.60;;
30062;SDS011;16889;67.864;24.990;2023-12-22T23:19:14;2.17;;;1.20;;
30062;SDS011;16889;67.864;24.990;2023-12-22T23:24:01;1.57;;;1.00;;
30062;SDS011;16889;67.864;24.990;2023-12-22T23:28:49;2.88;;;1.08;;
30062;SDS011;16889;67.864;24.990;2023-12-22T23:33:36;2.72;;;1.02;;
30062;SDS011;16889;67.864;24.990;2023-12-22T23:38:22;3.13;;;0.90;;
30062;SDS011;16889;67.864;24.990;2023-12-22T23:47:54;1.75;;;0.93;;
30062;SDS011;16889;67.864;24.990;2023-12-22T23:52:40;3.38;;;0.90;;
30062;SDS011;16889;67.864;24.990;2023-12-22T23:57:26;2.47;;;1.33;;
